Time;durP1;ratioP1;P1;durP2;ratioP2;P2;SDS_P1;SDS_P2;PMS_P1;PMS_P2;Temp;Humidity;BMP_temperature;BMP_pressure;BME280_temperature;BME280_humidity;BME280_pressure;Samples;Min_cycle;Max_cycle;Signal;HPM_P1;HPM_P2
2022/11/01 00:00:49;;;;;;;25.93;15.70;;;;;;;11.60;100.00;101148.84;1469489;88;21471;-89
2022/11/01 00:03:15;;;;;;;28.47;16.47;;;;;;;11.60;100.00;101148.84;1467253;88;21493;-86
2022/11/01 00:05:43;;;;;;;26.83;15.23;;;;;;;11.59;100.00;101149.80;1465022;88;21412;-88
2022/11/01 00:08:09;;;;;;;27.20;16.07;;;;;;;11.56;100.00;101139.47;1467527;88;21545;-85
2022/11/01 00:10:35;;;;;;;30.83;16.67;;;;;;;11.59;100.00;101139.69;1463166;88;21566;-87
2022/11/01 00:13:01;;;;;;;31.07;17.57;;;;;;;11.59;100.00;101138.36;1474444;87;21411;-85
2022/11/01 00:15:27;;;;;;;27.37;16.77;;;;;;;11.59;100.00;101135.22;1454075;88;21583;-85
2022/11/01 00:17:53;;;;;;;23.13;15.00;;;;;;;11.56;100.00;101130.69;1471531;88;22143;-89
2022/11/01 00:20:19;;;;;;;21.30;15.10;;;;;;;11.54;100.00;101133.49;1458396;89;21515;-86
2022/11/01 00:22:45;;;;;;;26.70;15.43;;;;;;;11.52;100.00;101130.13;1476561;88;22034;-89
2022/11/01 00:25:11;;;;;;;30.00;17.37;;;;;;;11.52;100.00;101122.17;1476247;87;22563;-89
2022/11/01 00:27:37;;;;;;;29.33;17.03;;;;;;;11.52;100.00;101116.88;1467867;88;21656;-87
2022/11/01 00:30:05;;;;;;;30.50;17.77;;;;;;;11.55;100.00;101120.58;1481722;88;21464;-86
2022/11/01 00:32:31;;;;;;;30.93;17.77;;;;;;;11.54;100.00;101114.94;1464891;88;22147;-84
2022/11/01 00:34:57;;;;;;;36.97;20.07;;;;;;;11.55;100.00;101115.77;1459211;88;22380;-85
2022/11/01 00:37:23;;;;;;;29.27;18.93;;;;;;;11.54;100.00;101116.26;1473646;87;21411;-86
2022/11/01 00:39:49;;;;;;;31.87;18.90;;;;;;;11.53;100.00;101112.74;1470435;88;21396;-89
2022/11/01 00:42:15;;;;;;;27.50;18.20;;;;;;;11.53;100.00;101114.07;1475306;87;22505;-86
2022/11/01 00:44:41;;;;;;;31.27;19.00;;;;;;;11.55;100.00;101117.92;1467397;88;21507;-84
2022/11/01 00:47:07;;;;;;;27.77;18.20;;;;;;;11.57;100.00;101115.98;1471702;88;21360;-85
2022/11/01 00:49:33;;;;;;;36.03;19.03;;;;;;;11.58;100.00;101113.67;1464119;87;21440;-89
2022/11/01 00:51:59;;;;;;;36.10;19.53;;;;;;;11.57;100.00;101115.98;1481192;88;21508;-87
2022/11/01 00:54:25;;;;;;;34.40;21.13;;;;;;;11.52;100.00;101106.27;1466620;87;21404;-85
2022/11/01 00:56:51;;;;;;;32.07;18.20;;;;;;;11.54;100.00;101113.61;1468301;87;21486;-83
2022/11/01 00:59:17;;;;;;;29.67;19.77;;;;;;;11.52;100.00;101108.92;1477141;87;21513;-84
2022/11/01 01:01:43;;;;;;;42.80;21.67;;;;;;;11.51;100.00;101105.94;1468655;87;21359;-85
2022/11/01 01:04:09;;;;;;;35.10;20.37;;;;;;;11.53;100.00;101111.91;1441812;89;21392;-87
2022/11/01 01:06:35;;;;;;;32.53;18.93;;;;;;;11.55;100.00;101099.37;1420738;90;21435;-87
2022/11/01 01:09:01;;;;;;;33.33;20.47;;;;;;;11.58;100.00;101108.86;1431871;90;21428;-86
2022/11/01 01:11:27;;;;;;;35.37;20.20;;;;;;;11.60;100.00;101105.10;1408103;91;21504;-86
2022/11/01 01:13:54;;;;;;;35.67;23.80;;;;;;;11.58;100.00;101101.74;1411056;91;21438;-87
2022/11/01 01:16:20;;;;;;;31.90;21.57;;;;;;;11.54;100.00;101099.03;1435803;90;21419;-86
2022/11/01 01:18:46;;;;;;;32.63;20.00;;;;;;;11.52;100.00;101097.83;1442446;90;21397;-86
2022/11/01 01:21:13;;;;;;;35.83;21.27;;;;;;;11.49;100.00;101089.31;1416356;89;21481;-88
2022/11/01 01:23:39;;;;;;;40.43;22.87;;;;;;;11.49;100.00;101086.67;1470628;88;21569;-86
2022/11/01 01:26:08;;;;;;;32.97;21.57;;;;;;;11.48;100.00;101087.16;1472140;87;22351;-85
2022/11/01 01:28:34;;;;;;;30.87;21.60;;;;;;;11.49;100.00;101089.31;1451789;88;21427;-86
2022/11/01 01:31:07;;;;;;;33.80;21.67;;;;;;;11.49;100.00;101089.31;1465894;88;22358;-86
2022/11/01 01:33:33;;;;;;;32.33;20.33;;;;;;;11.51;100.00;101082.08;1456560;88;23474;-85
2022/11/01 01:36:05;;;;;;;32.93;21.30;;;;;;;11.52;100.00;101079.77;1448647;88;21995;-85
2022/11/01 01:38:31;;;;;;;34.50;22.70;;;;;;;11.53;100.00;101084.08;1427835;88;21574;-86
2022/11/01 01:41:54;;;;;;;31.97;21.90;;;;;;;11.53;100.00;101088.88;1460366;87;21441;-89
2022/11/01 01:43:40;;;;;;;38.33;22.35;;;;;;;11.52;100.00;101083.74;1464714;88;21426;-87
2022/11/01 01:46:06;;;;;;;38.17;22.63;;;;;;;11.50;100.00;101084.35;1467204;87;21442;-86
2022/11/01 01:48:32;;;;;;;31.33;20.50;;;;;;;11.50;100.00;101080.38;1459933;87;21397;-84
2022/11/01 01:51:03;;;;;;;37.40;21.60;;;;;;;11.48;100.00;101079.20;1464207;86;21359;-85
2022/11/01 01:53:34;;;;;;;34.03;21.10;;;;;;;11.46;100.00;101077.66;1416081;90;21495;-83
2022/11/01 01:56:08;;;;;;;37.77;22.23;;;;;;;11.47;100.00;101078.84;1465279;86;21565;-85
2022/11/01 01:58:39;;;;;;;38.57;21.33;;;;;;;11.50;100.00;101076.41;1461727;87;22038;-85
2022/11/01 02:01:05;;;;;;;32.30;20.50;;;;;;;11.53;100.00;101069.50;1462415;88;21567;-86
2022/11/01 02:03:34;;;;;;;35.03;22.27;;;;;;;11.51;100.00;101070.14;1465057;86;22411;-85
2022/11/01 02:06:18;;;;;;;36.27;21.37;;;;;;;11.50;100.00;101072.42;1465779;88;21568;-83
2022/11/01 02:08:48;;;;;;;33.37;21.60;;;;;;;11.49;100.00;101078.72;1463268;88;22205;-84
2022/11/01 02:11:16;;;;;;;30.05;19.98;;;;;;;11.49;100.00;101076.06;1453856;88;21390;-86
2022/11/01 02:13:42;;;;;;;28.30;20.43;;;;;;;11.47;100.00;101067.41;1376022;89;22210;-86
2022/11/01 02:16:45;;;;;;;31.77;20.23;;;;;;;11.48;100.00;101075.23;1420382;90;21383;-85
2022/11/01 02:19:39;;;;;;;35.83;20.93;;;;;;;11.49;100.00;101071.59;1527683;89;21339;-84
2022/11/01 02:22:52;;;;;;;29.13;20.00;;;;;;;11.47;100.00;101066.08;1477902;89;22351;-87
2022/11/01 02:25:52;;;;;;;31.90;19.33;;;;;;;11.45;100.00;101075.97;1544143;88;21397;-85
2022/11/01 02:28:24;;;;;;;32.42;18.57;;;;;;;11.42;100.00;101074.92;1513052;91;21424;-87
2022/11/01 02:31:23;;;;;;;37.53;19.63;;;;;;;11.42;100.00;101066.51;1424654;91;21722;-87
2022/11/01 02:33:57;;;;;;;31.27;19.40;;;;;;;11.42;100.00;101066.97;1353847;91;22234;-86
2022/11/01 02:36:35;;;;;;;32.87;18.97;;;;;;;11.40;100.00;101071.59;1352963;93;21361;-88
2022/11/01 02:39:13;;;;;;;32.60;20.30;;;;;;;11.38;100.00;101074.86;1520570;90;21376;-86
2022/11/01 02:41:51;;;;;;;30.00;20.50;;;;;;;11.36;100.00;101072.83;1366537;91;21511;-85
2022/11/01 02:44:26;;;;;;;40.40;21.27;;;;;;;11.38;100.00;101068.23;1512806;90;21339;-87
2022/11/01 02:47:00;;;;;;;34.90;20.93;;;;;;;11.43;100.00;101069.99;1525044;90;21354;-82
2022/11/01 02:49:40;;;;;;;30.60;19.73;;;;;;;11.46;100.00;101068.39;1525979;89;21324;-86
2022/11/01 02:52:10;;;;;;;34.63;19.07;;;;;;;11.47;100.00;101070.05;1528120;89;21421;-86
2022/11/01 02:54:47;;;;;;;27.60;17.37;;;;;;;11.49;100.00;101063.64;1484487;91;21973;-88
2022/11/01 02:57:30;;;;;;;34.23;18.27;;;;;;;11.50;100.00;101066.63;1435148;91;21492;-87
2022/11/01 03:00:03;;;;;;;28.67;18.20;;;;;;;11.51;100.00;101066.17;1427994;91;21491;-86
2022/11/01 03:02:41;;;;;;;29.93;18.33;;;;;;;11.50;100.00;101065.80;1441655;89;21991;-84
2022/11/01 03:05:27;;;;;;;31.60;19.37;;;;;;;11.47;100.00;101070.05;1434208;91;21560;-88
2022/11/01 03:08:02;;;;;;;31.70;19.63;;;;;;;11.40;100.00;101072.92;1448498;89;21501;-87
2022/11/01 03:10:34;;;;;;;33.50;19.87;;;;;;;11.32;100.00;101064.31;1458495;89;21493;-88
2022/11/01 03:13:11;;;;;;;29.33;19.33;;;;;;;11.26;100.00;101067.03;1380516;91;22300;-86
2022/11/01 03:15:43;;;;;;;25.73;17.53;;;;;;;11.26;100.00;101056.42;1419036;89;21641;-87
2022/11/01 03:18:14;;;;;;;36.40;19.83;;;;;;;11.27;100.00;101059.41;1374563;89;21697;-86
2022/11/01 03:20:48;;;;;;;32.67;20.50;;;;;;;11.29;100.00;101060.13;1485339;89;21612;-88
2022/11/01 03:23:38;;;;;;;30.70;19.30;;;;;;;11.34;100.00;101061.55;1422445;91;22626;-82
2022/11/01 03:26:07;;;;;;;37.40;21.07;;;;;;;11.37;100.00;101063.92;1423142;91;22434;-84
2022/11/01 03:28:41;;;;;;;28.73;18.63;;;;;;;11.39;100.00;101065.92;1411523;92;22501;-83
2022/11/01 03:31:12;;;;;;;34.57;20.30;;;;;;;11.41;100.00;101056.03;1461330;88;21627;-83
2022/11/01 03:33:43;;;;;;;32.78;17.98;;;;;;;11.43;100.00;101054.09;1462413;88;21491;-84
2022/11/01 03:36:14;;;;;;;32.03;19.67;;;;;;;11.41;100.00;101050.73;1475614;88;21788;-85
2022/11/01 03:38:45;;;;;;;35.28;20.37;;;;;;;11.44;100.00;101055.75;1474458;87;21506;-83
2022/11/01 03:41:14;;;;;;;34.78;20.70;;;;;;;11.47;100.00;101054.15;1562623;87;22218;-86
2022/11/01 03:43:41;;;;;;;33.17;18.97;;;;;;;11.50;100.00;101052.55;1452688;88;21381;-85
2022/11/01 03:46:08;;;;;;;44.60;22.33;;;;;;;11.52;100.00;101045.30;1481139;87;22623;-83
2022/11/01 03:48:39;;;;;;;34.77;19.80;;;;;;;11.51;100.00;101042.31;1472559;87;21463;-84
2022/11/01 03:51:06;;;;;;;30.23;19.00;;;;;;;11.50;100.00;101046.75;1483598;88;24005;-87
2022/11/01 03:53:32;;;;;;;32.47;20.20;;;;;;;11.51;100.00;101048.94;1475593;88;21463;-85
2022/11/01 03:55:59;;;;;;;32.60;20.53;;;;;;;11.49;100.00;101042.44;1470116;88;21574;-84
2022/11/01 03:58:40;;;;;;;32.90;20.17;;;;;;;11.52;100.00;101041.33;1478632;87;21529;-85
2022/11/01 04:00:54;;;;;;;30.00;19.13;;;;;;;11.52;100.00;101047.95;1477168;87;21476;-83
2022/11/01 04:03:20;;;;;;;28.93;19.53;;;;;;;11.53;100.00;101052.27;1473121;87;21522;-85
2022/11/01 04:05:46;;;;;;;30.17;21.60;;;;;;;11.49;100.00;101052.20;1438211;89;21522;-87
2022/11/01 04:08:12;;;;;;;42.97;23.87;;;;;;;11.47;100.00;101043.55;1454321;89;21442;-83
2022/11/01 04:10:38;;;;;;;44.03;23.10;;;;;;;11.45;100.00;101045.48;1461353;89;21441;-87
2022/11/01 04:13:04;;;;;;;32.87;19.97;;;;;;;11.39;100.00;101042.07;1468213;88;21323;-87
2022/11/01 04:21:24;;;;;;;31.60;19.00;;;;;;;11.39;100.00;101032.80;1465832;87;21382;-85
2022/11/01 04:23:51;;;;;;;32.03;18.57;;;;;;;11.43;100.00;101033.72;1459424;87;21486;-82
2022/11/01 04:26:23;;;;;;;42.73;21.47;;;;;;;11.46;100.00;101027.30;1463709;86;21604;-85
2022/11/01 04:28:58;;;;;;;35.53;19.23;;;;;;;11.49;100.00;101032.33;1462332;88;21553;-86
2022/11/01 04:31:33;;;;;;;29.67;19.43;;;;;;;11.51;100.00;101033.03;1480853;88;22262;-86
2022/11/01 04:34:02;;;;;;;42.70;21.93;;;;;;;11.50;100.00;101036.64;1467369;88;21411;-86
2022/11/01 04:39:16;;;;;;;42.93;23.70;;;;;;;11.39;100.00;101042.07;1492713;88;21492;-87
2022/11/01 04:41:42;;;;;;;41.83;22.37;;;;;;;11.40;100.00;101038.46;1470540;87;22252;-85
2022/11/01 04:44:10;;;;;;;41.50;23.17;;;;;;;11.35;100.00;101040.69;1475647;88;21782;-86
2022/11/01 04:46:35;;;;;;;35.50;19.43;;;;;;;11.35;100.00;101044.66;1470063;88;21522;-87
2022/11/01 04:49:02;;;;;;;28.93;18.77;;;;;;;11.38;100.00;101036.43;1470937;87;21483;-84
2022/11/01 04:51:28;;;;;;;34.53;21.57;;;;;;;11.39;100.00;101038.92;1465788;88;21477;-85
2022/11/01 04:53:54;;;;;;;31.03;18.37;;;;;;;11.41;100.00;101038.31;1465172;87;21355;-87
2022/11/01 04:59:15;;;;;;;35.70;21.23;;;;;;;11.50;100.00;101031.34;1462118;88;22261;-86
2022/11/01 05:01:43;;;;;;;33.30;18.33;;;;;;;11.54;100.00;101027.45;1470714;87;21389;-88
2022/11/01 05:04:09;;;;;;;26.13;16.97;;;;;;;11.52;100.00;101027.58;1467750;88;21381;-86
2022/11/01 05:06:35;;;;;;;30.03;17.07;;;;;;;11.49;100.00;101031.84;1475318;87;21662;-85
2022/11/01 05:09:01;;;;;;;24.03;16.07;;;;;;;11.48;100.00;101028.02;1453106;87;21411;-86
2022/11/01 05:11:28;;;;;;;26.90;15.03;;;;;;;11.46;100.00;101022.00;1458570;87;21492;-86
2022/11/01 05:13:54;;;;;;;28.33;17.90;;;;;;;11.47;100.00;101022.34;1479532;88;21670;-84
2022/11/01 05:16:20;;;;;;;29.97;17.10;;;;;;;11.48;100.00;101020.89;1458016;88;22380;-83
2022/11/01 05:18:46;;;;;;;28.00;17.33;;;;;;;11.47;100.00;101023.17;1463666;88;21971;-85
2022/11/01 05:21:12;;;;;;;25.87;16.00;;;;;;;11.49;100.00;101028.35;1449729;89;21537;-83
2022/11/01 05:23:38;;;;;;;29.13;17.47;;;;;;;11.50;100.00;101030.84;1452079;88;21457;-85
2022/11/01 05:26:04;;;;;;;28.27;17.37;;;;;;;11.50;100.00;101030.02;1422189;90;21549;-83
2022/11/01 05:28:30;;;;;;;33.50;16.67;;;;;;;11.46;100.00;101035.26;1465782;87;21405;-85
2022/11/01 05:30:57;;;;;;;31.33;17.77;;;;;;;11.46;100.00;101029.95;1470405;88;22352;-85
2022/11/01 05:33:23;;;;;;;30.00;16.77;;;;;;;11.46;100.00;101029.95;1459462;88;21667;-83
2022/11/01 05:35:49;;;;;;;31.83;17.20;;;;;;;11.46;100.00;101032.61;1440905;90;22181;-85
2022/11/01 05:38:15;;;;;;;29.90;16.60;;;;;;;11.49;100.00;101033.66;1476520;88;21972;-85
2022/11/01 05:40:41;;;;;;;32.53;16.43;;;;;;;11.53;100.00;101038.52;1477091;87;21389;-86
2022/11/01 05:43:07;;;;;;;34.23;22.10;;;;;;;11.55;100.00;101030.44;1468980;87;21412;-86
2022/11/01 05:45:33;;;;;;;34.27;25.10;;;;;;;11.56;100.00;101036.08;1481458;88;21435;-83
2022/11/01 05:48:04;;;;;;;40.10;24.37;;;;;;;11.58;100.00;101041.27;1465238;87;22360;-86
2022/11/01 05:50:31;;;;;;;36.17;22.32;;;;;;;11.59;100.00;101038.95;1470638;87;22176;-85
2022/11/01 05:53:08;;;;;;;32.57;17.83;;;;;;;11.58;100.00;101031.48;1459710;87;21612;-83
2022/11/01 05:55:36;;;;;;;34.67;18.40;;;;;;;11.58;100.00;101028.84;1471659;90;21401;-84
2022/11/01 05:58:03;;;;;;;34.30;17.37;;;;;;;11.59;100.00;101021.22;1423918;88;21449;-85
2022/11/01 06:00:30;;;;;;;28.10;17.57;;;;;;;11.58;100.00;101018.23;1473484;87;21886;-82
2022/11/01 06:02:58;;;;;;;22.00;15.17;;;;;;;11.59;100.00;101023.87;1458190;88;22062;-84
2022/11/01 06:05:25;;;;;;;34.87;18.87;;;;;;;11.59;100.00;101019.89;1460303;88;22314;-83
2022/11/01 06:07:52;;;;;;;32.00;17.93;;;;;;;11.60;100.00;101029.55;1455498;88;21441;-86
2022/11/01 06:10:18;;;;;;;26.67;16.00;;;;;;;11.61;100.00;101025.91;1474197;87;21507;-88
2022/11/01 06:12:44;;;;;;;31.83;16.57;;;;;;;11.60;100.00;101024.23;1474652;87;21530;-87
2022/11/01 06:15:10;;;;;;;36.80;17.23;;;;;;;11.58;100.00;101024.86;1470371;87;21478;-85
2022/11/01 06:17:36;;;;;;;32.17;16.53;;;;;;;11.61;100.00;101035.18;1463322;88;22042;-83
2022/11/01 06:20:04;;;;;;;28.40;15.67;;;;;;;11.60;100.00;101036.17;1463322;88;21435;-85
2022/11/01 06:22:30;;;;;;;28.40;16.10;;;;;;;11.61;100.00;101036.51;1462838;87;21611;-86
2022/11/01 06:24:56;;;;;;;25.63;16.87;;;;;;;11.62;100.00;101041.31;1469752;87;21738;-80
2022/11/01 06:27:23;;;;;;;29.30;16.43;;;;;;;11.65;100.00;101035.27;1465391;88;22141;-85
2022/11/01 06:29:49;;;;;;;30.37;17.03;;;;;;;11.70;100.00;101041.46;1474810;88;21397;-81
2022/11/01 06:32:15;;;;;;;25.63;16.27;;;;;;;11.72;100.00;101043.00;1468964;88;21390;-84
2022/11/01 06:34:41;;;;;;;29.53;16.43;;;;;;;11.72;100.00;101049.63;1458832;87;21471;-85
2022/11/01 06:37:07;;;;;;;28.60;16.90;;;;;;;11.70;100.00;101046.27;1460955;88;21378;-81
2022/11/01 06:39:33;;;;;;;33.23;17.67;;;;;;;11.70;100.00;101046.77;1452260;90;21508;-82
2022/11/01 06:41:58;;;;;;;29.90;16.27;;;;;;;11.72;100.00;101046.98;1448066;88;21353;-83
2022/11/01 06:44:24;;;;;;;35.13;19.37;;;;;;;11.75;100.00;101041.39;1467568;88;21436;-84
2022/11/01 06:46:53;;;;;;;30.03;16.63;;;;;;;11.80;100.00;101042.80;1459673;87;21404;-82
2022/11/01 06:49:21;;;;;;;38.07;17.17;;;;;;;11.84;100.00;101045.51;1461481;88;22359;-88
2022/11/01 06:51:47;;;;;;;35.97;19.03;;;;;;;11.86;100.00;101047.58;1463890;87;21502;-85
2022/11/01 06:54:13;;;;;;;35.63;18.60;;;;;;;11.88;100.00;101050.90;1466035;86;21405;-86
2022/11/01 06:56:39;;;;;;;30.47;17.97;;;;;;;11.90;100.00;101050.28;1455669;88;21463;-87
2022/11/01 06:59:06;;;;;;;33.17;18.77;;;;;;;11.89;100.00;101045.97;1463358;88;21426;-86
2022/11/01 07:01:32;;;;;;;29.60;18.57;;;;;;;11.90;100.00;101044.97;1463550;87;22417;-85
2022/11/01 07:03:58;;;;;;;33.40;20.67;;;;;;;11.93;100.00;101044.69;1473897;88;21390;-83
2022/11/01 07:06:27;;;;;;;37.47;18.77;;;;;;;11.97;100.00;101044.77;1457799;88;22134;-81
2022/11/01 07:08:52;;;;;;;34.13;18.27;;;;;;;12.00;100.00;101048.47;1453330;88;22380;-81
2022/11/01 07:11:18;;;;;;;33.20;19.33;;;;;;;12.03;100.00;101056.14;1458767;87;21412;-79
2022/11/01 07:13:44;;;;;;;39.73;21.00;;;;;;;12.06;100.00;101050.55;1473076;87;21478;-82
2022/11/01 07:16:10;;;;;;;32.17;18.93;;;;;;;12.09;100.00;101044.13;1470417;87;21433;-82
2022/11/01 07:18:36;;;;;;;35.63;19.83;;;;;;;12.02;100.00;101045.66;1447915;88;21419;-84
2022/11/01 07:21:03;;;;;;;36.70;19.60;;;;;;;12.02;100.00;101054.45;1453258;88;21382;-84
2022/11/01 07:23:30;;;;;;;34.40;20.37;;;;;;;12.05;100.00;101054.16;1456292;88;21420;-85
2022/11/01 07:25:56;;;;;;;35.57;18.47;;;;;;;12.07;100.00;101050.88;1487409;88;21483;-81
2022/11/01 07:28:23;;;;;;;36.30;19.07;;;;;;;12.12;100.00;101051.80;1481842;88;21433;-81
2022/11/01 07:30:53;;;;;;;45.30;20.43;;;;;;;12.15;100.00;101044.88;1400992;87;21273;-82
2022/11/01 07:33:20;;;;;;;32.43;17.80;;;;;;;12.08;99.67;101051.22;1551623;88;21548;-83
2022/11/01 07:35:47;;;;;;;38.07;19.50;;;;;;;12.08;100.00;101046.41;1404839;88;21370;-80
2022/11/01 07:38:14;;;;;;;37.87;19.20;;;;;;;12.08;100.00;101044.59;1481280;88;22383;-82
2022/11/01 07:40:41;;;;;;;37.83;20.00;;;;;;;12.08;100.00;101037.95;1457550;88;21404;-82
2022/11/01 07:43:07;;;;;;;55.97;28.00;;;;;;;12.11;100.00;101039.03;1456257;88;21942;-81
2022/11/01 07:45:34;;;;;;;38.87;20.13;;;;;;;12.16;100.00;101035.43;1471868;88;21418;-80
2022/11/01 07:48:04;;;;;;;39.03;21.93;;;;;;;12.19;100.00;101032.98;1477782;88;22396;-84
2022/11/01 07:50:33;;;;;;;34.93;21.03;;;;;;;12.16;99.42;101034.11;1553389;87;22381;-83
2022/11/01 07:53:06;;;;;;;37.10;18.63;;;;;;;12.17;99.27;101032.31;1467986;88;21544;-81
2022/11/01 07:55:34;;;;;;;35.13;20.13;;;;;;;12.13;97.85;101038.38;1471256;87;21590;-83
2022/11/01 07:58:01;;;;;;;32.63;18.17;;;;;;;12.10;98.29;101043.14;1473587;88;21419;-81
2022/11/01 08:00:28;;;;;;;43.50;20.50;;;;;;;12.11;99.01;101037.70;1395016;88;21316;-81
2022/11/01 08:03:06;;;;;;;39.40;20.00;;;;;;;12.11;98.82;101035.05;1454306;87;21426;-81
2022/11/01 08:05:39;;;;;;;31.90;18.80;;;;;;;12.15;99.02;101036.42;1546702;87;21318;-85
2022/11/01 08:08:06;;;;;;;40.47;20.47;;;;;;;12.12;97.74;101033.23;1466288;88;21360;-84
2022/11/01 08:10:33;;;;;;;40.17;21.87;;;;;;;12.11;98.05;101029.73;1473569;87;21501;-87
2022/11/01 08:13:19;;;;;;;40.77;20.43;;;;;;;12.10;98.02;101033.84;1410047;88;21568;-89
2022/11/01 08:15:46;;;;;;;35.10;20.47;;;;;;;12.12;98.29;101023.44;1432624;89;21803;-92
2022/11/01 08:18:21;;;;;;;29.90;19.20;;;;;;;12.13;98.47;101021.13;1494193;88;22302;-91
2022/11/01 08:20:48;;;;;;;42.67;20.40;;;;;;;12.10;98.37;101022.73;1504635;91;21369;-91
2022/11/01 08:23:14;;;;;;;38.83;19.23;;;;;;;12.13;98.47;101019.80;1415001;90;22167;-89
2022/11/01 08:25:40;;;;;;;36.63;19.90;;;;;;;12.14;98.84;101021.95;1409691;91;21484;-90
2022/11/01 08:28:19;;;;;;;41.63;22.33;;;;;;;12.21;98.70;101022.23;1425450;90;21346;-94
2022/11/01 08:30:48;;;;;;;40.40;20.80;;;;;;;12.22;97.84;101013.29;1389257;88;21269;-90
2022/11/01 08:33:14;;;;;;;36.80;20.73;;;;;;;12.17;97.31;101014.56;1351268;91;21416;-92
2022/11/01 08:35:42;;;;;;;35.33;19.10;;;;;;;12.15;97.22;101016.52;1489502;88;21335;-90
2022/11/01 08:38:09;;;;;;;36.27;18.37;;;;;;;12.15;97.25;101012.54;1448274;91;21338;-83
2022/11/01 08:40:35;;;;;;;33.47;18.53;;;;;;;12.16;97.87;101016.86;1437416;91;21342;-84
2022/11/01 08:43:01;;;;;;;35.73;20.27;;;;;;;12.19;97.92;101016.56;1457513;88;21438;-89
2022/11/01 08:45:28;;;;;;;33.80;19.33;;;;;;;12.20;98.01;101013.45;1446125;88;21469;-89
2022/11/01 08:48:02;;;;;;;37.60;21.20;;;;;;;12.22;97.14;101018.09;1446703;90;21329;-87
2022/11/01 08:50:28;;;;;;;39.93;24.27;;;;;;;12.26;97.57;101018.67;1417779;91;21420;-90
2022/11/01 08:52:54;;;;;;;56.50;24.47;;;;;;;12.29;97.24;101018.38;1429699;91;21391;-85
2022/11/01 08:55:21;;;;;;;39.67;21.03;;;;;;;12.31;96.85;101021.21;1471082;88;21379;-93
2022/11/01 08:57:48;;;;;;;34.70;21.53;;;;;;;12.34;96.59;101026.26;1409210;91;21415;-92
2022/11/01 09:00:15;;;;;;;36.07;21.20;;;;;;;12.35;96.41;101026.59;1473981;87;21403;-90
2022/11/01 09:02:42;;;;;;;43.83;20.77;;;;;;;12.39;96.59;101027.13;1472220;87;21722;-93
2022/11/01 09:05:08;;;;;;;35.63;19.77;;;;;;;12.42;96.37;101024.19;1450454;88;21542;-87
2022/11/01 09:07:36;;;;;;;45.30;21.60;;;;;;;12.45;96.47;101023.90;1472019;87;21513;-94
2022/11/01 09:10:03;;;;;;;43.17;22.00;;;;;;;12.46;95.24;101008.80;1401637;91;21442;-90
2022/11/01 09:12:29;;;;;;;131.57;28.27;;;;;;;12.39;94.92;101020.00;1469707;88;21394;-89
2022/11/01 09:14:55;;;;;;;34.40;19.80;;;;;;;12.39;95.18;101030.63;1448732;88;21446;-88
2022/11/01 09:17:21;;;;;;;37.33;20.33;;;;;;;12.36;94.59;101040.70;1424275;91;21456;-93
2022/11/01 09:19:47;;;;;;;41.73;21.47;;;;;;;12.34;94.84;101045.30;1448920;90;22268;-86
2022/11/01 09:22:13;;;;;;;39.93;20.53;;;;;;;12.34;94.88;101039.53;1445598;90;21420;-88
2022/11/01 09:24:39;;;;;;;43.50;22.70;;;;;;;12.36;94.96;101038.05;1461318;89;21395;-92
2022/11/01 09:27:08;;;;;;;43.27;22.23;;;;;;;12.42;95.37;101040.95;1440950;90;21425;-90
2022/11/01 09:29:35;;;;;;;43.57;22.83;;;;;;;12.36;93.91;101035.39;1450494;90;21365;-92
2022/11/01 09:32:01;;;;;;;42.93;23.60;;;;;;;12.35;93.96;101035.89;1426649;90;22304;-93
2022/11/01 09:34:26;;;;;;;40.27;20.83;;;;;;;12.37;94.42;101035.72;1455275;87;21306;-90
2022/11/01 09:36:53;;;;;;;44.70;21.23;;;;;;;12.41;94.53;101035.80;1461920;89;22488;-90
2022/11/01 09:39:20;;;;;;;37.27;19.80;;;;;;;12.41;94.53;101035.80;1456849;89;22331;-92
2022/11/01 09:42:03;;;;;;;37.10;22.93;;;;;;;12.42;94.76;101035.64;1467353;89;21365;-90
2022/11/01 09:44:34;;;;;;;42.27;22.60;;;;;;;12.47;94.71;101029.91;1462584;89;22483;-88
2022/11/01 09:47:05;;;;;;;42.03;23.60;;;;;;;12.48;93.84;101028.08;1449065;89;22326;-91
2022/11/01 09:49:37;;;;;;;41.23;25.43;;;;;;;12.48;93.94;101034.22;1460285;87;21479;-88
2022/11/01 09:52:12;;;;;;;39.30;23.27;;;;;;;12.53;94.10;101029.32;1463452;89;21978;-90
2022/11/01 09:54:38;;;;;;;42.23;21.67;;;;;;;12.52;93.88;101018.37;1448609;89;21558;-87
2022/11/01 09:57:21;;;;;;;36.27;20.77;;;;;;;12.58;93.99;101016.45;1445415;87;21572;-92
2022/11/01 10:00:03;;;;;;;38.30;22.53;;;;;;;12.56;93.45;101011.77;1445286;89;21381;-93
2022/11/01 10:02:55;;;;;;;43.60;22.83;;;;;;;12.61;93.59;101010.84;1457261;89;21483;-90
2022/11/01 10:05:45;;;;;;;41.20;22.43;;;;;;;12.65;93.37;101013.54;1460530;89;21357;-91
2022/11/01 10:08:26;;;;;;;41.75;21.50;;;;;;;12.68;92.95;101006.27;1463051;89;21996;-91
2022/11/01 10:11:01;;;;;;;;;;;;;;;12.68;92.37;101006.27;1450605;89;21484;-91
2022/11/01 10:14:03;;;;;;;47.93;24.40;;;;;;;12.65;92.62;101003.41;1440393;89;20432;-93
2022/11/01 10:16:37;;;;;;;46.37;25.00;;;;;;;12.68;92.54;100998.30;1444686;89;21462;-92
2022/11/01 10:19:13;;;;;;;48.73;26.13;;;;;;;12.74;92.99;100999.04;1458025;89;21497;-90
2022/11/01 10:21:51;;;;;;;43.70;25.97;;;;;;;12.82;92.77;100997.81;1461690;87;21349;-88
2022/11/01 10:24:46;;;;;;;59.10;31.07;;;;;;;12.85;92.12;100992.20;1462095;89;21402;-89
2022/11/01 10:27:20;;;;;;;46.87;24.53;;;;;;;12.87;91.92;100994.22;1460876;87;21305;-90
2022/11/01 10:30:07;;;;;;;51.13;25.43;;;;;;;12.91;91.81;100996.91;1469657;87;22320;-91
2022/11/01 10:32:41;;;;;;;45.93;23.03;;;;;;;12.90;91.22;100997.08;1463745;89;21329;-92
2022/11/01 10:35:16;;;;;;;48.90;25.07;;;;;;;12.91;91.24;100995.59;1442804;89;21406;-93
2022/11/01 10:37:50;;;;;;;39.53;26.20;;;;;;;13.00;91.33;100998.67;1472382;87;21523;-90
2022/11/01 10:40:21;;;;;;;46.87;25.37;;;;;;;13.05;90.89;100995.08;1479563;87;21564;-90
2022/11/01 10:42:47;;;;;;;46.90;25.63;;;;;;;13.13;91.37;100989.52;1467638;87;22218;-86
2022/11/01 10:45:21;;;;;;;47.53;24.27;;;;;;;13.17;89.96;100989.55;1472621;87;21446;-88
2022/11/01 10:47:52;;;;;;;44.00;25.20;;;;;;;13.19;90.33;100990.25;1441923;89;21431;-87
2022/11/01 10:50:23;;;;;;;42.33;25.07;;;;;;;13.19;89.55;100986.26;1452809;87;21490;-90
2022/11/01 10:53:13;;;;;;;43.73;25.72;;;;;;;13.26;90.14;100978.91;1436334;90;21609;-85
2022/11/01 10:55:44;;;;;;;47.30;25.33;;;;;;;13.35;89.64;100977.62;1438811;89;21460;-85
2022/11/01 10:58:24;;;;;;;50.73;29.90;;;;;;;13.41;89.35;100979.70;1456374;89;21343;-87
2022/11/01 11:00:51;;;;;;;61.68;30.95;;;;;;;13.47;88.48;100977.75;1452129;89;21402;-90
2022/11/01 11:03:24;;;;;;;64.77;34.60;;;;;;;13.43;87.80;100977.20;1448069;89;21542;-88
2022/11/01 11:05:52;;;;;;;49.93;29.30;;;;;;;13.42;87.16;100979.53;1446534;89;21688;-88
2022/11/01 11:08:22;;;;;;;54.03;28.13;;;;;;;13.44;87.38;100976.73;1453973;89;21512;-87
2022/11/01 11:10:52;;;;;;;50.12;27.65;;;;;;;13.43;87.26;100973.21;1466505;87;22413;-87
2022/11/01 11:13:25;;;;;;;51.97;29.30;;;;;;;13.44;87.50;100966.92;1472658;88;21376;-89
2022/11/01 11:16:05;;;;;;;47.80;29.07;;;;;;;13.43;87.16;100965.23;1468346;88;22411;-92
2022/11/01 11:18:38;;;;;;;52.90;27.27;;;;;;;13.48;87.43;100957.64;1480074;89;21934;-85
2022/11/01 11:21:13;;;;;;;45.97;26.37;;;;;;;13.56;87.58;100952.06;1435422;89;21374;-89
2022/11/01 11:23:43;;;;;;;54.47;29.17;;;;;;;13.63;87.53;100935.31;1516314;89;21379;-90
2022/11/01 11:26:15;;;;;;;50.45;28.15;;;;;;;13.77;87.64;100937.91;1442505;89;21380;-89
2022/11/01 11:28:55;;;;;;;48.93;26.67;;;;;;;13.79;86.40;100937.27;1439968;89;21690;-86